sensor_id;sensor_type;location;lat;lon;timestamp;temperature;humidity
16744;DHT22;71724;-33.900;151.182;2023-10-09T00:02:04;22.90;43.60
16744;DHT22;71724;-33.900;151.182;2023-10-09T00:04:34;23.10;43.30
16744;DHT22;71724;-33.900;151.182;2023-10-09T00:07:05;23.30;43.30
16744;DHT22;71724;-33.900;151.182;2023-10-09T00:09:35;23.60;42.70
16744;DHT22;71724;-33.900;151.182;2023-10-09T00:12:19;23.70;43.10
16744;DHT22;71724;-33.900;151.182;2023-10-09T00:14:50;23.90;41.70
16744;DHT22;71724;-33.900;151.182;2023-10-09T00:17:22;24.20;42.70
16744;DHT22;71724;-33.900;151.182;2023-10-09T00:19:50;24.30;40.90
16744;DHT22;71724;-33.900;151.182;2023-10-09T00:22:26;24.40;38.90
16744;DHT22;71724;-33.900;151.182;2023-10-09T00:24:56;24.30;40.10
16744;DHT22;71724;-33.900;151.182;2023-10-09T00:27:43;24.40;40.80
16744;DHT22;71724;-33.900;151.182;2023-10-09T00:30:16;24.60;41.70
16744;DHT22;71724;-33.900;151.182;2023-10-09T00:32:48;24.70;42.10
16744;DHT22;71724;-33.900;151.182;2023-10-09T00:35:28;25.00;40.80
16744;DHT22;71724;-33.900;151.182;2023-10-09T00:38:10;25.20;41.30
16744;DHT22;71724;-33.900;151.182;2023-10-09T00:41:04;25.40;40.80
16744;DHT22;71724;-33.900;151.182;2023-10-09T00:43:34;25.40;40.70
16744;DHT22;71724;-33.900;151.182;2023-10-09T00:46:07;25.40;41.70
16744;DHT22;71724;-33.900;151.182;2023-10-09T00:49:05;25.40;41.00
16744;DHT22;71724;-33.900;151.182;2023-10-09T00:51:44;25.50;42.20
16744;DHT22;71724;-33.900;151.182;2023-10-09T00:54:22;25.60;40.90
16744;DHT22;71724;-33.900;151.182;2023-10-09T00:56:54;25.80;41.30
16744;DHT22;71724;-33.900;151.182;2023-10-09T00:59:26;26.00;41.00
16744;DHT22;71724;-33.900;151.182;2023-10-09T01:01:54;26.00;40.90
16744;DHT22;71724;-33.900;151.182;2023-10-09T01:04:47;25.90;40.40
16744;DHT22;71724;-33.900;151.182;2023-10-09T01:07:15;25.80;41.70
16744;DHT22;71724;-33.900;151.182;2023-10-09T01:09:47;25.80;41.90
16744;DHT22;71724;-33.900;151.182;2023-10-09T01:12:17;25.90;41.30
16744;DHT22;71724;-33.900;151.182;2023-10-09T01:14:45;25.80;40.60
16744;DHT22;71724;-33.900;151.182;2023-10-09T01:17:22;25.90;41.00
16744;DHT22;71724;-33.900;151.182;2023-10-09T01:20:12;26.00;41.00
16744;DHT22;71724;-33.900;151.182;2023-10-09T01:22:43;26.00;40.40
16744;DHT22;71724;-33.900;151.182;2023-10-09T01:25:11;26.00;40.50
16744;DHT22;71724;-33.900;151.182;2023-10-09T01:27:38;26.30;39.60
16744;DHT22;71724;-33.900;151.182;2023-10-09T01:30:07;26.20;40.20
16744;DHT22;71724;-33.900;151.182;2023-10-09T01:32:40;26.20;40.50
16744;DHT22;71724;-33.900;151.182;2023-10-09T01:35:10;26.20;40.10
16744;DHT22;71724;-33.900;151.182;2023-10-09T01:37:49;26.20;40.70
16744;DHT22;71724;-33.900;151.182;2023-10-09T01:40:18;26.30;40.40
16744;DHT22;71724;-33.900;151.182;2023-10-09T01:43:04;26.30;40.60
16744;DHT22;71724;-33.900;151.182;2023-10-09T01:45:36;26.50;40.30
16744;DHT22;71724;-33.900;151.182;2023-10-09T01:48:13;26.50;40.50
16744;DHT22;71724;-33.900;151.182;2023-10-09T01:50:50;26.50;39.90
16744;DHT22;71724;-33.900;151.182;2023-10-09T01:53:18;26.30;39.60
16744;DHT22;71724;-33.900;151.182;2023-10-09T01:55:48;26.30;39.90
16744;DHT22;71724;-33.900;151.182;2023-10-09T01:58:16;26.30;39.90
16744;DHT22;71724;-33.900;151.182;2023-10-09T02:00:50;26.30;40.10
16744;DHT22;71724;-33.900;151.182;2023-10-09T02:03:31;26.20;40.60
16744;DHT22;71724;-33.900;151.182;2023-10-09T02:06:03;26.00;40.70
16744;DHT22;71724;-33.900;151.182;2023-10-09T02:08:32;26.00;41.00
16744;DHT22;71724;-33.900;151.182;2023-10-09T02:11:02;25.90;41.10
16744;DHT22;71724;-33.900;151.182;2023-10-09T02:13:30;25.80;41.70
16744;DHT22;71724;-33.900;151.182;2023-10-09T02:16:17;25.60;41.50
16744;DHT22;71724;-33.900;151.182;2023-10-09T02:18:55;25.60;42.10
16744;DHT22;71724;-33.900;151.182;2023-10-09T02:21:23;25.60;42.70
16744;DHT22;71724;-33.900;151.182;2023-10-09T02:24:09;25.60;43.10
16744;DHT22;71724;-33.900;151.182;2023-10-09T02:26:53;25.70;43.60
16744;DHT22;71724;-33.900;151.182;2023-10-09T02:29:21;25.90;43.00
16744;DHT22;71724;-33.900;151.182;2023-10-09T02:31:51;26.00;42.80
16744;DHT22;71724;-33.900;151.182;2023-10-09T02:34:19;26.10;42.90
16744;DHT22;71724;-33.900;151.182;2023-10-09T02:36:50;26.10;43.00
16744;DHT22;71724;-33.900;151.182;2023-10-09T02:39:27;26.00;42.90
16744;DHT22;71724;-33.900;151.182;2023-10-09T02:41:56;26.00;42.90
16744;DHT22;71724;-33.900;151.182;2023-10-09T02:44:44;25.90;41.90
16744;DHT22;71724;-33.900;151.182;2023-10-09T02:47:17;25.80;41.90
16744;DHT22;71724;-33.900;151.182;2023-10-09T02:49:52;25.80;42.30
16744;DHT22;71724;-33.900;151.182;2023-10-09T02:52:27;25.80;42.20
16744;DHT22;71724;-33.900;151.182;2023-10-09T02:55:00;25.80;41.80
16744;DHT22;71724;-33.900;151.182;2023-10-09T02:57:33;25.80;42.00
16744;DHT22;71724;-33.900;151.182;2023-10-09T03:00:05;25.80;41.50
16744;DHT22;71724;-33.900;151.182;2023-10-09T03:02:46;25.90;41.60
16744;DHT22;71724;-33.900;151.182;2023-10-09T03:05:17;25.90;41.80
16744;DHT22;71724;-33.900;151.182;2023-10-09T03:07:45;26.00;41.90
16744;DHT22;71724;-33.900;151.182;2023-10-09T03:10:12;26.00;42.00
16744;DHT22;71724;-33.900;151.182;2023-10-09T03:12:39;26.00;41.30
16744;DHT22;71724;-33.900;151.182;2023-10-09T03:15:10;25.90;40.60
16744;DHT22;71724;-33.900;151.182;2023-10-09T03:17:37;26.00;40.70
16744;DHT22;71724;-33.900;151.182;2023-10-09T03:20:09;26.00;41.40
16744;DHT22;71724;-33.900;151.182;2023-10-09T03:22:41;26.10;42.00
16744;DHT22;71724;-33.900;151.182;2023-10-09T03:25:09;26.10;41.60
16744;DHT22;71724;-33.900;151.182;2023-10-09T03:27:41;26.10;41.80
16744;DHT22;71724;-33.900;151.182;2023-10-09T03:30:15;26.10;42.00
16744;DHT22;71724;-33.900;151.182;2023-10-09T03:32:52;26.10;42.20
16744;DHT22;71724;-33.900;151.182;2023-10-09T03:35:21;26.10;42.00
16744;DHT22;71724;-33.900;151.182;2023-10-09T03:37:54;26.20;41.90
16744;DHT22;71724;-33.900;151.182;2023-10-09T03:40:47;26.20;40.60
16744;DHT22;71724;-33.900;151.182;2023-10-09T03:43:14;26.20;41.40
16744;DHT22;71724;-33.900;151.182;2023-10-09T03:45:42;26.10;41.60
16744;DHT22;71724;-33.900;151.182;2023-10-09T03:48:19;26.10;41.80
16744;DHT22;71724;-33.900;151.182;2023-10-09T03:50:59;26.10;41.10
16744;DHT22;71724;-33.900;151.182;2023-10-09T03:53:36;26.10;40.80
16744;DHT22;71724;-33.900;151.182;2023-10-09T03:56:06;26.20;39.80
16744;DHT22;71724;-33.900;151.182;2023-10-09T03:58:49;26.10;40.00
16744;DHT22;71724;-33.900;151.182;2023-10-09T04:01:19;26.00;40.20
16744;DHT22;71724;-33.900;151.182;2023-10-09T04:03:51;26.00;40.90
16744;DHT22;71724;-33.900;151.182;2023-10-09T04:06:25;26.00;41.40
16744;DHT22;71724;-33.900;151.182;2023-10-09T04:09:17;26.00;40.70
16744;DHT22;71724;-33.900;151.182;2023-10-09T04:11:51;26.00;40.10
16744;DHT22;71724;-33.900;151.182;2023-10-09T04:14:38;26.00;39.50
16744;DHT22;71724;-33.900;151.182;2023-10-09T04:17:25;26.00;39.80
16744;DHT22;71724;-33.900;151.182;2023-10-09T04:19:56;26.00;40.20
16744;DHT22;71724;-33.900;151.182;2023-10-09T04:22:41;26.00;40.20
16744;DHT22;71724;-33.900;151.182;2023-10-09T04:25:22;26.00;40.60
16744;DHT22;71724;-33.900;151.182;2023-10-09T04:27:56;26.00;40.60
16744;DHT22;71724;-33.900;151.182;2023-10-09T04:30:45;26.00;41.00
16744;DHT22;71724;-33.900;151.182;2023-10-09T04:33:22;26.00;40.70
16744;DHT22;71724;-33.900;151.182;2023-10-09T04:36:10;26.00;40.50
16744;DHT22;71724;-33.900;151.182;2023-10-09T04:38:58;26.00;40.80
16744;DHT22;71724;-33.900;151.182;2023-10-09T04:41:29;26.00;41.90
16744;DHT22;71724;-33.900;151.182;2023-10-09T04:44:01;26.10;42.00
16744;DHT22;71724;-33.900;151.182;2023-10-09T04:46:46;26.00;42.10
16744;DHT22;71724;-33.900;151.182;2023-10-09T04:49:32;26.00;41.70
16744;DHT22;71724;-33.900;151.182;2023-10-09T04:52:19;26.00;42.00
16744;DHT22;71724;-33.900;151.182;2023-10-09T04:54:59;25.90;42.20
16744;DHT22;71724;-33.900;151.182;2023-10-09T04:57:37;25.90;42.30
16744;DHT22;71724;-33.900;151.182;2023-10-09T05:00:17;25.80;42.40
16744;DHT22;71724;-33.900;151.182;2023-10-09T05:02:51;25.80;43.20
16744;DHT22;71724;-33.900;151.182;2023-10-09T05:05:27;25.70;43.40
16744;DHT22;71724;-33.900;151.182;2023-10-09T05:10:52;25.70;42.90
16744;DHT22;71724;-33.900;151.182;2023-10-09T05:13:41;25.60;42.80
16744;DHT22;71724;-33.900;151.182;2023-10-09T05:16:19;25.60;43.50
16744;DHT22;71724;-33.900;151.182;2023-10-09T05:18:53;25.80;43.30
16744;DHT22;71724;-33.900;151.182;2023-10-09T05:21:35;25.80;43.30
16744;DHT22;71724;-33.900;151.182;2023-10-09T05:24:11;25.70;43.30
16744;DHT22;71724;-33.900;151.182;2023-10-09T05:26:44;25.80;43.30
16744;DHT22;71724;-33.900;151.182;2023-10-09T05:29:25;25.80;43.20
16744;DHT22;71724;-33.900;151.182;2023-10-09T05:31:55;25.70;42.10
16744;DHT22;71724;-33.900;151.182;2023-10-09T05:34:27;25.80;42.40
16744;DHT22;71724;-33.900;151.182;2023-10-09T05:37:04;25.80;42.30
16744;DHT22;71724;-33.900;151.182;2023-10-09T05:39:52;25.70;41.70
16744;DHT22;71724;-33.900;151.182;2023-10-09T05:42:34;25.70;41.90
16744;DHT22;71724;-33.900;151.182;2023-10-09T05:45:15;25.60;41.40
16744;DHT22;71724;-33.900;151.182;2023-10-09T05:48:01;25.50;41.60
16744;DHT22;71724;-33.900;151.182;2023-10-09T05:50:31;25.50;42.00
16744;DHT22;71724;-33.900;151.182;2023-10-09T05:53:03;25.50;42.00
16744;DHT22;71724;-33.900;151.182;2023-10-09T05:55:31;25.50;42.50
16744;DHT22;71724;-33.900;151.182;2023-10-09T05:58:17;25.50;42.90
16744;DHT22;71724;-33.900;151.182;2023-10-09T06:01:03;25.50;43.00
16744;DHT22;71724;-33.900;151.182;2023-10-09T06:03:48;25.50;42.30
16744;DHT22;71724;-33.900;151.182;2023-10-09T06:06:16;25.50;42.40
16744;DHT22;71724;-33.900;151.182;2023-10-09T06:09:10;25.40;42.60
16744;DHT22;71724;-33.900;151.182;2023-10-09T06:11:47;25.60;42.70
16744;DHT22;71724;-33.900;151.182;2023-10-09T06:14:24;25.60;42.20
16744;DHT22;71724;-33.900;151.182;2023-10-09T06:16:54;25.60;42.60
16744;DHT22;71724;-33.900;151.182;2023-10-09T06:19:24;25.70;42.40
16744;DHT22;71724;-33.900;151.182;2023-10-09T06:22:01;25.70;42.60
16744;DHT22;71724;-33.900;151.182;2023-10-09T06:24:29;25.80;42.40
16744;DHT22;71724;-33.900;151.182;2023-10-09T06:27:15;25.80;42.70
16744;DHT22;71724;-33.900;151.182;2023-10-09T06:30:03;25.80;43.30
16744;DHT22;71724;-33.900;151.182;2023-10-09T06:32:45;25.80;43.90
16744;DHT22;71724;-33.900;151.182;2023-10-09T06:35:22;25.80;44.10
16744;DHT22;71724;-33.900;151.182;2023-10-09T06:37:51;25.90;44.10
16744;DHT22;71724;-33.900;151.182;2023-10-09T06:40:38;25.90;43.70
16744;DHT22;71724;-33.900;151.182;2023-10-09T06:43:25;25.80;43.80
16744;DHT22;71724;-33.900;151.182;2023-10-09T06:45:56;25.80;43.40
16744;DHT22;71724;-33.900;151.182;2023-10-09T06:48:42;25.80;43.70
16744;DHT22;71724;-33.900;151.182;2023-10-09T06:51:13;25.70;43.30
16744;DHT22;71724;-33.900;151.182;2023-10-09T06:53:50;25.50;43.60
16744;DHT22;71724;-33.900;151.182;2023-10-09T06:56:21;25.50;43.60
16744;DHT22;71724;-33.900;151.182;2023-10-09T06:59:05;25.30;44.20
16744;DHT22;71724;-33.900;151.182;2023-10-09T07:01:51;25.20;44.20
16744;DHT22;71724;-33.900;151.182;2023-10-09T07:04:36;25.00;45.10
16744;DHT22;71724;-33.900;151.182;2023-10-09T07:07:03;24.80;45.40
16744;DHT22;71724;-33.900;151.182;2023-10-09T07:09:39;24.70;46.00
16744;DHT22;71724;-33.900;151.182;2023-10-09T07:12:12;24.60;46.60
16744;DHT22;71724;-33.900;151.182;2023-10-09T07:14:53;24.40;46.90
16744;DHT22;71724;-33.900;151.182;2023-10-09T07:17:23;24.30;47.30
16744;DHT22;71724;-33.900;151.182;2023-10-09T07:20:11;24.00;48.00
16744;DHT22;71724;-33.900;151.182;2023-10-09T07:22:57;23.90;48.70
16744;DHT22;71724;-33.900;151.182;2023-10-09T07:25:43;23.70;49.10
16744;DHT22;71724;-33.900;151.182;2023-10-09T07:28:23;23.60;49.70
16744;DHT22;71724;-33.900;151.182;2023-10-09T07:31:06;23.50;50.50
16744;DHT22;71724;-33.900;151.182;2023-10-09T07:33:35;23.30;51.30
16744;DHT22;71724;-33.900;151.182;2023-10-09T07:36:21;23.20;52.20
16744;DHT22;71724;-33.900;151.182;2023-10-09T07:39:05;23.10;52.90
16744;DHT22;71724;-33.900;151.182;2023-10-09T07:41:41;22.90;53.10
16744;DHT22;71724;-33.900;151.182;2023-10-09T07:44:22;22.80;53.30
16744;DHT22;71724;-33.900;151.182;2023-10-09T07:47:04;22.70;53.80
16744;DHT22;71724;-33.900;151.182;2023-10-09T07:49:59;22.60;54.60
16744;DHT22;71724;-33.900;151.182;2023-10-09T07:52:28;22.50;54.50
16744;DHT22;71724;-33.900;151.182;2023-10-09T07:54:56;22.40;54.70
16744;DHT22;71724;-33.900;151.182;2023-10-09T07:57:30;22.30;55.50
16744;DHT22;71724;-33.900;151.182;2023-10-09T08:00:05;22.20;55.70
16744;DHT22;71724;-33.900;151.182;2023-10-09T08:02:59;22.10;56.00
16744;DHT22;71724;-33.900;151.182;2023-10-09T08:05:27;22.00;56.20
16744;DHT22;71724;-33.900;151.182;2023-10-09T08:08:01;22.00;56.50
16744;DHT22;71724;-33.900;151.182;2023-10-09T08:11:03;21.90;56.40
16744;DHT22;71724;-33.900;151.182;2023-10-09T08:13:49;21.80;56.30
16744;DHT22;71724;-33.900;151.182;2023-10-09T08:16:16;21.80;56.60
16744;DHT22;71724;-33.900;151.182;2023-10-09T08:18:51;21.80;57.00
16744;DHT22;71724;-33.900;151.182;2023-10-09T08:21:19;21.70;57.20
16744;DHT22;71724;-33.900;151.182;2023-10-09T08:24:08;21.70;56.90
16744;DHT22;71724;-33.900;151.182;2023-10-09T08:26:56;21.60;57.60
16744;DHT22;71724;-33.900;151.182;2023-10-09T08:29:43;21.50;57.90
16744;DHT22;71724;-33.900;151.182;2023-10-09T08:32:13;21.50;57.90
16744;DHT22;71724;-33.900;151.182;2023-10-09T08:35:08;21.40;58.10
16744;DHT22;71724;-33.900;151.182;2023-10-09T08:38:02;21.30;58.00
16744;DHT22;71724;-33.900;151.182;2023-10-09T08:40:42;21.20;58.10
16744;DHT22;71724;-33.900;151.182;2023-10-09T08:43:17;21.20;58.40
16744;DHT22;71724;-33.900;151.182;2023-10-09T08:48:20;21.10;59.50
16744;DHT22;71724;-33.900;151.182;2023-10-09T08:50:53;21.10;59.30
16744;DHT22;71724;-33.900;151.182;2023-10-09T08:53:23;21.00;59.50
16744;DHT22;71724;-33.900;151.182;2023-10-09T08:55:54;21.00;59.60
16744;DHT22;71724;-33.900;151.182;2023-10-09T08:58:22;21.00;60.00
16744;DHT22;71724;-33.900;151.182;2023-10-09T09:01:03;20.90;60.30
16744;DHT22;71724;-33.900;151.182;2023-10-09T09:03:41;20.90;60.80
16744;DHT22;71724;-33.900;151.182;2023-10-09T09:06:12;20.90;61.00
16744;DHT22;71724;-33.900;151.182;2023-10-09T09:08:42;20.80;61.30
16744;DHT22;71724;-33.900;151.182;2023-10-09T09:11:13;20.80;61.80
16744;DHT22;71724;-33.900;151.182;2023-10-09T09:13:45;20.80;61.50
16744;DHT22;71724;-33.900;151.182;2023-10-09T09:16:20;20.80;62.30
16744;DHT22;71724;-33.900;151.182;2023-10-09T09:21:33;20.70;62.70
16744;DHT22;71724;-33.900;151.182;2023-10-09T09:24:13;20.70;62.70
16744;DHT22;71724;-33.900;151.182;2023-10-09T09:26:50;20.70;63.20
16744;DHT22;71724;-33.900;151.182;2023-10-09T09:32:06;20.60;63.60
16744;DHT22;71724;-33.900;151.182;2023-10-09T09:34:48;20.60;63.70
16744;DHT22;71724;-33.900;151.182;2023-10-09T09:37:26;20.60;63.70
16744;DHT22;71724;-33.900;151.182;2023-10-09T09:40:16;20.60;63.80
16744;DHT22;71724;-33.900;151.182;2023-10-09T09:43:09;20.50;64.30
16744;DHT22;71724;-33.900;151.182;2023-10-09T09:45:48;20.50;64.70
16744;DHT22;71724;-33.900;151.182;2023-10-09T09:48:19;20.50;65.10
16744;DHT22;71724;-33.900;151.182;2023-10-09T09:50:47;20.50;65.00
16744;DHT22;71724;-33.900;151.182;2023-10-09T09:53:15;20.40;65.30
16744;DHT22;71724;-33.900;151.182;2023-10-09T09:55:55;20.40;65.40
16744;DHT22;71724;-33.900;151.182;2023-10-09T09:58:26;20.30;65.30
16744;DHT22;71724;-33.900;151.182;2023-10-09T10:01:10;20.30;65.10
16744;DHT22;71724;-33.900;151.182;2023-10-09T10:04:20;20.30;65.20
16744;DHT22;71724;-33.900;151.182;2023-10-09T10:06:51;20.30;65.10
16744;DHT22;71724;-33.900;151.182;2023-10-09T10:09:38;20.30;65.00
16744;DHT22;71724;-33.900;151.182;2023-10-09T10:12:06;20.20;65.00
16744;DHT22;71724;-33.900;151.182;2023-10-09T10:20:26;20.10;64.50
16744;DHT22;71724;-33.900;151.182;2023-10-09T10:23:17;20.10;64.30
16744;DHT22;71724;-33.900;151.182;2023-10-09T10:25:52;20.00;64.10
16744;DHT22;71724;-33.900;151.182;2023-10-09T10:28:27;20.00;63.90
16744;DHT22;71724;-33.900;151.182;2023-10-09T10:31:11;20.00;63.60
16744;DHT22;71724;-33.900;151.182;2023-10-09T10:36:23;19.90;63.50
16744;DHT22;71724;-33.900;151.182;2023-10-09T10:39:04;19.80;63.40
16744;DHT22;71724;-33.900;151.182;2023-10-09T10:41:34;19.80;63.40
16744;DHT22;71724;-33.900;151.182;2023-10-09T10:44:31;19.80;63.40
16744;DHT22;71724;-33.900;151.182;2023-10-09T10:47:07;19.70;63.40
16744;DHT22;71724;-33.900;151.182;2023-10-09T10:49:53;19.70;63.40
16744;DHT22;71724;-33.900;151.182;2023-10-09T10:52:34;19.60;63.50
16744;DHT22;71724;-33.900;151.182;2023-10-09T10:55:15;19.50;63.60
16744;DHT22;71724;-33.900;151.182;2023-10-09T10:58:20;19.40;63.60
16744;DHT22;71724;-33.900;151.182;2023-10-09T11:00:55;19.30;63.50
16744;DHT22;71724;-33.900;151.182;2023-10-09T11:03:26;19.20;63.60
16744;DHT22;71724;-33.900;151.182;2023-10-09T11:06:05;19.20;63.90
16744;DHT22;71724;-33.900;151.182;2023-10-09T11:08:45;19.10;64.00
16744;DHT22;71724;-33.900;151.182;2023-10-09T11:11:22;19.10;64.30
16744;DHT22;71724;-33.900;151.182;2023-10-09T11:14:09;19.00;64.20
16744;DHT22;71724;-33.900;151.182;2023-10-09T11:16:41;19.10;64.50
16744;DHT22;71724;-33.900;151.182;2023-10-09T11:19:13;19.00;64.40
16744;DHT22;71724;-33.900;151.182;2023-10-09T11:22:01;19.00;64.60
16744;DHT22;71724;-33.900;151.182;2023-10-09T11:24:35;19.00;64.70
16744;DHT22;71724;-33.900;151.182;2023-10-09T11:27:04;19.00;64.80
16744;DHT22;71724;-33.900;151.182;2023-10-09T11:29:33;19.00;64.70
16744;DHT22;71724;-33.900;151.182;2023-10-09T11:32:19;18.90;64.90
16744;DHT22;71724;-33.900;151.182;2023-10-09T11:35:08;18.80;64.90
16744;DHT22;71724;-33.900;151.182;2023-10-09T11:37:35;18.90;65.20
16744;DHT22;71724;-33.900;151.182;2023-10-09T11:43:03;18.80;65.60
16744;DHT22;71724;-33.900;151.182;2023-10-09T11:45:30;18.70;65.40
16744;DHT22;71724;-33.900;151.182;2023-10-09T11:48:19;18.80;65.50
16744;DHT22;71724;-33.900;151.182;2023-10-09T11:51:13;18.70;65.50
16744;DHT22;71724;-33.900;151.182;2023-10-09T11:53:48;18.60;65.40
16744;DHT22;71724;-33.900;151.182;2023-10-09T11:56:24;18.50;66.20
16744;DHT22;71724;-33.900;151.182;2023-10-09T11:58:53;18.50;66.10
16744;DHT22;71724;-33.900;151.182;2023-10-09T12:01:25;18.40;66.10
16744;DHT22;71724;-33.900;151.182;2023-10-09T12:04:01;18.30;66.60
16744;DHT22;71724;-33.900;151.182;2023-10-09T12:06:29;18.30;67.00
16744;DHT22;71724;-33.900;151.182;2023-10-09T12:08:58;18.30;67.10
16744;DHT22;71724;-33.900;151.182;2023-10-09T12:11:26;18.20;67.20
16744;DHT22;71724;-33.900;151.182;2023-10-09T12:13:57;18.20;67.40
16744;DHT22;71724;-33.900;151.182;2023-10-09T12:16:27;18.30;67.50
16744;DHT22;71724;-33.900;151.182;2023-10-09T12:18:55;18.30;67.40
16744;DHT22;71724;-33.900;151.182;2023-10-09T12:21:22;18.20;67.40
16744;DHT22;71724;-33.900;151.182;2023-10-09T12:23:50;18.20;67.70
16744;DHT22;71724;-33.900;151.182;2023-10-09T12:26:20;18.10;67.80
16744;DHT22;71724;-33.900;151.182;2023-10-09T12:28:47;18.20;67.80
16744;DHT22;71724;-33.900;151.182;2023-10-09T12:31:17;18.20;68.00
16744;DHT22;71724;-33.900;151.182;2023-10-09T12:33:47;18.20;68.20
16744;DHT22;71724;-33.900;151.182;2023-10-09T12:36:17;18.10;68.20
16744;DHT22;71724;-33.900;151.182;2023-10-09T12:38:47;18.00;68.40
16744;DHT22;71724;-33.900;151.182;2023-10-09T12:41:19;18.00;68.80
16744;DHT22;71724;-33.900;151.182;2023-10-09T12:44:00;18.00;69.20
16744;DHT22;71724;-33.900;151.182;2023-10-09T12:46:28;18.10;69.00
16744;DHT22;71724;-33.900;151.182;2023-10-09T12:49:03;18.10;68.90
16744;DHT22;71724;-33.900;151.182;2023-10-09T12:51:32;18.00;69.20
16744;DHT22;71724;-33.900;151.182;2023-10-09T12:53:59;17.90;69.60
16744;DHT22;71724;-33.900;151.182;2023-10-09T12:56:29;17.80;70.00
16744;DHT22;71724;-33.900;151.182;2023-10-09T12:59:04;17.90;70.50
16744;DHT22;71724;-33.900;151.182;2023-10-09T13:01:33;17.90;70.50
16744;DHT22;71724;-33.900;151.182;2023-10-09T13:04:13;17.90;70.40
16744;DHT22;71724;-33.900;151.182;2023-10-09T13:06:45;17.90;70.50
16744;DHT22;71724;-33.900;151.182;2023-10-09T13:09:17;17.90;70.60
16744;DHT22;71724;-33.900;151.182;2023-10-09T13:12:02;17.80;70.60
16744;DHT22;71724;-33.900;151.182;2023-10-09T13:14:32;17.70;70.90
16744;DHT22;71724;-33.900;151.182;2023-10-09T13:17:02;17.70;71.20
16744;DHT22;71724;-33.900;151.182;2023-10-09T13:19:36;17.70;71.50
16744;DHT22;71724;-33.900;151.182;2023-10-09T13:22:04;17.70;71.80
16744;DHT22;71724;-33.900;151.182;2023-10-09T13:24:39;17.70;72.00
16744;DHT22;71724;-33.900;151.182;2023-10-09T13:27:07;17.80;71.90
16744;DHT22;71724;-33.900;151.182;2023-10-09T13:29:37;17.80;71.80
16744;DHT22;71724;-33.900;151.182;2023-10-09T13:32:08;17.70;71.70
16744;DHT22;71724;-33.900;151.182;2023-10-09T13:34:42;17.70;72.00
16744;DHT22;71724;-33.900;151.182;2023-10-09T13:37:11;17.60;72.30
16744;DHT22;71724;-33.900;151.182;2023-10-09T13:39:41;17.60;72.50
16744;DHT22;71724;-33.900;151.182;2023-10-09T13:42:22;17.60;72.80
16744;DHT22;71724;-33.900;151.182;2023-10-09T13:44:53;17.50;72.90
16744;DHT22;71724;-33.900;151.182;2023-10-09T13:47:20;17.60;73.10
16744;DHT22;71724;-33.900;151.182;2023-10-09T13:49:49;17.60;73.20
16744;DHT22;71724;-33.900;151.182;2023-10-09T13:52:20;17.60;73.40
16744;DHT22;71724;-33.900;151.182;2023-10-09T13:54:48;17.60;73.50
16744;DHT22;71724;-33.900;151.182;2023-10-09T13:57:17;17.60;73.50
16744;DHT22;71724;-33.900;151.182;2023-10-09T13:59:48;17.60;73.60
16744;DHT22;71724;-33.900;151.182;2023-10-09T14:02:16;17.50;73.60
16744;DHT22;71724;-33.900;151.182;2023-10-09T14:04:46;17.40;74.00
16744;DHT22;71724;-33.900;151.182;2023-10-09T14:07:18;17.50;74.00
16744;DHT22;71724;-33.900;151.182;2023-10-09T14:09:46;17.50;73.90
16744;DHT22;71724;-33.900;151.182;2023-10-09T14:12:33;17.60;73.70
16744;DHT22;71724;-33.900;151.182;2023-10-09T14:15:01;17.60;73.70
16744;DHT22;71724;-33.900;151.182;2023-10-09T14:17:30;17.60;73.50
16744;DHT22;71724;-33.900;151.182;2023-10-09T14:19:59;17.50;74.10
16744;DHT22;71724;-33.900;151.182;2023-10-09T14:22:46;17.60;74.00
16744;DHT22;71724;-33.900;151.182;2023-10-09T14:25:18;17.70;73.50
16744;DHT22;71724;-33.900;151.182;2023-10-09T14:27:47;17.70;73.10
16744;DHT22;71724;-33.900;151.182;2023-10-09T14:30:15;17.70;73.50
16744;DHT22;71724;-33.900;151.182;2023-10-09T14:32:49;17.70;73.70
16744;DHT22;71724;-33.900;151.182;2023-10-09T14:35:22;17.70;73.70
16744;DHT22;71724;-33.900;151.182;2023-10-09T14:37:53;17.70;74.00
16744;DHT22;71724;-33.900;151.182;2023-10-09T14:40:20;17.70;74.00
16744;DHT22;71724;-33.900;151.182;2023-10-09T14:42:56;17.70;74.00
16744;DHT22;71724;-33.900;151.182;2023-10-09T14:45:27;17.70;73.90
16744;DHT22;71724;-33.900;151.182;2023-10-09T14:47:55;17.80;74.00
16744;DHT22;71724;-33.900;151.182;2023-10-09T14:50:22;17.80;73.80
16744;DHT22;71724;-33.900;151.182;2023-10-09T14:52:50;17.90;73.90
16744;DHT22;71724;-33.900;151.182;2023-10-09T14:55:18;17.80;73.60
16744;DHT22;71724;-33.900;151.182;2023-10-09T14:57:48;17.80;74.20
16744;DHT22;71724;-33.900;151.182;2023-10-09T15:00:16;17.80;74.20
16744;DHT22;71724;-33.900;151.182;2023-10-09T15:02:50;17.80;74.10
16744;DHT22;71724;-33.900;151.182;2023-10-09T15:05:17;17.80;74.30
16744;DHT22;71724;-33.900;151.182;2023-10-09T15:07:45;17.80;74.50
16744;DHT22;71724;-33.900;151.182;2023-10-09T15:10:14;17.90;74.60
16744;DHT22;71724;-33.900;151.182;2023-10-09T15:12:43;17.90;74.90
16744;DHT22;71724;-33.900;151.182;2023-10-09T15:15:13;17.90;74.70
16744;DHT22;71724;-33.900;151.182;2023-10-09T15:17:41;17.90;74.80
16744;DHT22;71724;-33.900;151.182;2023-10-09T15:20:14;17.90;74.80
16744;DHT22;71724;-33.900;151.182;2023-10-09T15:22:43;17.90;74.60
16744;DHT22;71724;-33.900;151.182;2023-10-09T15:25:11;17.90;74.50
16744;DHT22;71724;-33.900;151.182;2023-10-09T15:27:44;17.90;75.20
16744;DHT22;71724;-33.900;151.182;2023-10-09T15:30:12;17.90;75.20
16744;DHT22;71724;-33.900;151.182;2023-10-09T15:32:43;17.90;75.40
16744;DHT22;71724;-33.900;151.182;2023-10-09T15:35:11;17.80;75.20
16744;DHT22;71724;-33.900;151.182;2023-10-09T15:37:39;17.80;75.40
16744;DHT22;71724;-33.900;151.182;2023-10-09T15:40:09;17.80;75.20
16744;DHT22;71724;-33.900;151.182;2023-10-09T15:42:45;17.80;76.40
16744;DHT22;71724;-33.900;151.182;2023-10-09T15:45:22;17.70;76.20
16744;DHT22;71724;-33.900;151.182;2023-10-09T15:47:51;17.70;76.20
16744;DHT22;71724;-33.900;151.182;2023-10-09T15:50:19;17.70;76.50
16744;DHT22;71724;-33.900;151.182;2023-10-09T15:52:51;17.70;77.50
16744;DHT22;71724;-33.900;151.182;2023-10-09T15:55:21;17.60;77.00
16744;DHT22;71724;-33.900;151.182;2023-10-09T15:57:53;17.60;76.70
16744;DHT22;71724;-33.900;151.182;2023-10-09T16:00:22;17.70;76.70